Time;durP1;ratioP1;P1;durP2;ratioP2;P2;SDS_P1;SDS_P2;PMS_P1;PMS_P2;Temp;Humidity;BMP_temperature;BMP_pressure;BME280_temperature;BME280_humidity;BME280_pressure;Samples;Min_cycle;Max_cycle;Signal;HPM_P1;HPM_P2
2021/01/06 00:00:19;;;;;;;14.07;9.93;;;3.80;92.10;;;;;;2066423;28;20102;-81
2021/01/06 00:01:20;;;;;;;14.55;9.73;;;3.70;92.00;;;;;;2070740;28;20471;-81
2021/01/06 00:02:21;;;;;;;11.73;8.52;;;3.80;92.10;;;;;;2083424;28;20083;-81
2021/01/06 00:03:24;;;;;;;13.40;8.77;;;3.80;92.10;;;;;;2087220;28;20052;-81
2021/01/06 00:04:24;;;;;;;13.32;8.40;;;3.80;92.10;;;;;;2075960;28;20018;-81
2021/01/06 00:05:26;;;;;;;13.38;9.07;;;3.80;92.10;;;;;;2084908;28;20083;-81
2021/01/06 00:06:29;;;;;;;11.63;7.65;;;3.80;92.10;;;;;;2084063;28;20086;-82
2021/01/06 00:07:29;;;;;;;12.52;7.60;;;3.80;92.10;;;;;;2078896;28;20033;-81
2021/01/06 00:08:30;;;;;;;12.52;7.95;;;3.80;92.10;;;;;;2093363;28;20033;-80
2021/01/06 00:09:30;;;;;;;11.80;8.18;;;3.70;92.10;;;;;;2096042;28;20013;-80
2021/01/06 00:10:32;;;;;;;12.52;7.90;;;3.70;92.10;;;;;;2092180;28;20025;-81
2021/01/06 00:11:37;;;;;;;13.48;8.45;;;3.70;92.00;;;;;;2102539;28;20080;-80
2021/01/06 00:12:40;;;;;;;12.07;8.32;;;3.70;92.10;;;;;;2106877;28;20016;-81
2021/01/06 00:13:41;;;;;;;11.60;7.75;;;3.70;92.10;;;;;;2095571;28;20052;-81
2021/01/06 00:14:41;;;;;;;9.52;6.40;;;3.70;92.10;;;;;;2101905;28;20025;-81
2021/01/06 00:15:42;;;;;;;11.13;7.78;;;3.70;92.10;;;;;;2102586;28;20050;-81
2021/01/06 00:16:49;;;;;;;11.68;7.72;;;3.70;92.10;;;;;;2076343;28;20053;-81
2021/01/06 00:17:50;;;;;;;12.23;7.63;;;3.70;92.10;;;;;;2079633;28;20010;-81
2021/01/06 00:18:51;;;;;;;12.60;8.00;;;3.70;92.10;;;;;;2091493;28;20025;-79
2021/01/06 00:19:52;;;;;;;12.73;7.53;;;3.70;92.10;;;;;;2096728;28;20026;-80
2021/01/06 00:20:54;;;;;;;13.60;8.32;;;3.70;92.10;;;;;;2099633;28;20027;-81
2021/01/06 00:21:54;;;;;;;14.30;9.07;;;3.70;92.10;;;;;;2099671;28;20036;-81
2021/01/06 00:22:55;;;;;;;12.73;8.68;;;3.70;92.10;;;;;;2090727;28;20364;-81
2021/01/06 00:23:56;;;;;;;14.48;9.55;;;3.70;92.10;;;;;;2089048;28;20086;-81
2021/01/06 00:24:57;;;;;;;13.95;9.27;;;3.70;92.10;;;;;;2086420;28;20028;-81
2021/01/06 00:25:57;;;;;;;14.95;9.23;;;3.70;92.20;;;;;;2088498;28;20041;-81
2021/01/06 00:26:58;;;;;;;13.75;9.23;;;3.70;92.20;;;;;;2091816;28;20470;-81
2021/01/06 00:28:00;;;;;;;13.88;9.30;;;3.60;92.20;;;;;;2081133;28;20410;-81
2021/01/06 00:29:01;;;;;;;13.10;9.13;;;3.60;92.20;;;;;;2081527;28;20036;-81
2021/01/06 00:30:05;;;;;;;14.90;9.93;;;3.60;92.20;;;;;;2094632;28;20052;-81
2021/01/06 00:31:07;;;;;;;13.90;8.75;;;3.60;92.20;;;;;;2096714;28;20109;-81
2021/01/06 00:32:10;;;;;;;15.18;9.32;;;3.60;92.30;;;;;;2082820;28;20460;-81
2021/01/06 00:33:14;;;;;;;14.77;9.38;;;3.60;92.30;;;;;;2091175;28;20360;-81
2021/01/06 00:34:15;;;;;;;15.60;9.63;;;3.60;92.30;;;;;;2088131;28;20545;-81
2021/01/06 00:35:17;;;;;;;14.65;9.20;;;3.60;92.30;;;;;;2081475;28;20092;-81
2021/01/06 00:36:21;;;;;;;16.33;9.45;;;3.60;92.30;;;;;;2093967;28;20013;-81
2021/01/06 00:37:21;;;;;;;14.95;9.75;;;3.60;92.30;;;;;;2091852;28;20017;-80
2021/01/06 00:38:23;;;;;;;15.43;9.77;;;3.60;92.30;;;;;;2101890;28;20032;-81
2021/01/06 00:39:23;;;;;;;15.43;9.70;;;3.60;92.30;;;;;;2084206;28;20107;-81
2021/01/06 00:40:31;;;;;;;14.52;9.20;;;3.60;92.40;;;;;;2081438;28;20380;-81
2021/01/06 00:41:35;;;;;;;13.82;9.45;;;3.60;92.40;;;;;;2084621;28;20068;-81
2021/01/06 00:42:36;;;;;;;15.35;9.73;;;3.60;92.40;;;;;;2091621;28;20080;-81
2021/01/06 00:43:37;;;;;;;13.65;9.18;;;3.60;92.40;;;;;;2099277;28;20093;-81
2021/01/06 00:44:38;;;;;;;13.80;8.90;;;3.60;92.40;;;;;;2106381;28;20092;-81
2021/01/06 00:45:39;;;;;;;15.23;8.98;;;3.60;92.40;;;;;;2105731;28;20044;-81
2021/01/06 00:46:40;;;;;;;15.63;8.90;;;3.60;92.40;;;;;;2090576;28;20110;-81
2021/01/06 00:47:41;;;;;;;14.60;9.13;;;3.60;92.40;;;;;;2094750;28;20090;-80
2021/01/06 00:48:42;;;;;;;13.10;8.70;;;3.60;92.40;;;;;;2088939;28;20029;-81
2021/01/06 00:49:42;;;;;;;14.75;9.43;;;3.60;92.40;;;;;;2080731;28;20550;-82
2021/01/06 00:50:43;;;;;;;15.10;9.43;;;3.60;92.40;;;;;;2080883;28;20033;-80
2021/01/06 00:51:47;;;;;;;15.27;9.88;;;3.60;92.40;;;;;;2090791;28;20032;-80
2021/01/06 00:52:47;;;;;;;14.73;8.73;;;3.60;92.40;;;;;;2081592;28;20056;-81
2021/01/06 00:53:48;;;;;;;15.57;8.95;;;3.60;92.40;;;;;;2083642;28;20037;-80
2021/01/06 00:54:49;;;;;;;14.68;9.40;;;3.60;92.40;;;;;;2071444;28;20033;-81
2021/01/06 00:55:51;;;;;;;15.50;9.25;;;3.60;92.40;;;;;;2086354;28;20037;-81
2021/01/06 00:56:52;;;;;;;12.48;8.52;;;3.60;92.40;;;;;;2096476;28;20165;-81
2021/01/06 00:57:54;;;;;;;11.60;7.95;;;3.60;92.40;;;;;;2097068;28;20471;-81
2021/01/06 00:58:54;;;;;;;14.13;8.75;;;3.60;92.40;;;;;;2080285;28;20033;-81
2021/01/06 00:59:55;;;;;;;12.65;8.32;;;3.60;92.40;;;;;;2075240;28;20128;-81
2021/01/06 01:00:56;;;;;;;13.57;8.88;;;3.60;92.40;;;;;;2091901;28;20579;-81
2021/01/06 01:01:56;;;;;;;15.75;9.10;;;3.60;92.40;;;;;;2085400;28;20048;-80
2021/01/06 01:02:58;;;;;;;14.10;8.60;;;3.60;92.40;;;;;;2077990;28;20026;-81
2021/01/06 01:03:58;;;;;;;13.02;8.60;;;3.60;92.40;;;;;;2072365;28;20041;-80
2021/01/06 01:04:59;;;;;;;13.00;7.85;;;3.60;92.40;;;;;;2088383;28;20036;-81
2021/01/06 01:05:59;;;;;;;12.20;8.02;;;3.60;92.40;;;;;;2092514;28;20036;-81
2021/01/06 01:07:00;;;;;;;13.85;8.98;;;3.60;92.40;;;;;;2087746;28;20029;-80
2021/01/06 01:08:03;;;;;;;12.80;8.75;;;3.60;92.40;;;;;;2078942;28;20053;-80
2021/01/06 01:09:05;;;;;;;14.50;9.27;;;3.60;92.40;;;;;;2080236;28;20111;-81
2021/01/06 01:10:06;;;;;;;14.48;8.95;;;3.60;92.40;;;;;;2087761;28;20475;-80
2021/01/06 01:11:07;;;;;;;13.43;8.45;;;3.60;92.40;;;;;;2088000;28;20099;-81
2021/01/06 01:12:09;;;;;;;13.82;9.07;;;3.60;92.40;;;;;;2095865;28;20131;-80
2021/01/06 01:13:13;;;;;;;12.52;8.45;;;3.60;92.40;;;;;;2088804;28;20112;-81
2021/01/06 01:14:14;;;;;;;13.75;8.38;;;3.60;92.40;;;;;;2085786;28;20040;-80
2021/01/06 01:15:14;;;;;;;13.82;8.63;;;3.60;92.40;;;;;;2078010;28;20423;-80
2021/01/06 01:16:16;;;;;;;14.82;9.18;;;3.60;92.40;;;;;;2077696;28;20104;-80
2021/01/06 01:17:18;;;;;;;12.20;8.52;;;3.60;92.40;;;;;;2092727;28;20060;-81
2021/01/06 01:18:21;;;;;;;15.55;9.18;;;3.60;92.40;;;;;;2085883;28;20439;-81
2021/01/06 01:19:22;;;;;;;15.65;9.05;;;3.50;92.40;;;;;;2081999;28;20033;-81
2021/01/06 01:20:23;;;;;;;14.48;9.10;;;3.60;92.40;;;;;;2083620;28;20416;-81
2021/01/06 01:21:23;;;;;;;12.85;8.77;;;3.60;92.40;;;;;;2081697;28;20029;-82
2021/01/06 01:22:24;;;;;;;14.48;9.77;;;3.60;92.40;;;;;;2074869;28;20072;-82
2021/01/06 01:23:28;;;;;;;13.88;9.65;;;3.60;92.40;;;;;;2083197;28;20163;-82
2021/01/06 01:24:28;;;;;;;14.50;9.60;;;3.60;92.40;;;;;;2078182;28;20069;-81
2021/01/06 01:25:29;;;;;;;17.30;10.48;;;3.60;92.40;;;;;;2075083;28;20077;-81
2021/01/06 01:26:29;;;;;;;15.65;10.18;;;3.60;92.40;;;;;;2088863;28;20064;-82
2021/01/06 01:27:30;;;;;;;14.38;9.82;;;3.60;92.40;;;;;;2086195;28;20035;-81
2021/01/06 01:28:30;;;;;;;16.02;9.80;;;3.60;92.40;;;;;;2084683;28;20067;-82
2021/01/06 01:29:31;;;;;;;14.52;9.10;;;3.50;92.40;;;;;;2081966;28;20491;-80
2021/01/06 01:30:32;;;;;;;12.73;8.85;;;3.60;92.40;;;;;;2090403;28;20016;-81
2021/01/06 01:31:34;;;;;;;13.88;9.00;;;3.60;92.40;;;;;;2095327;28;20040;-80
2021/01/06 01:32:35;;;;;;;13.65;8.85;;;3.60;92.40;;;;;;2076750;28;20025;-81
2021/01/06 01:33:35;;;;;;;14.88;8.82;;;3.60;92.50;;;;;;2090064;28;20020;-81
2021/01/06 01:34:36;;;;;;;12.00;7.72;;;3.60;92.40;;;;;;2096409;28;20021;-81
2021/01/06 01:35:37;;;;;;;13.50;8.32;;;3.60;92.40;;;;;;2098257;28;20024;-81
2021/01/06 01:36:37;;;;;;;12.68;8.05;;;3.60;92.50;;;;;;2094191;28;20025;-80
2021/01/06 01:37:43;;;;;;;12.52;7.95;;;3.60;92.50;;;;;;2074501;28;20059;-81
2021/01/06 01:38:43;;;;;;;14.05;8.95;;;3.60;92.50;;;;;;2082258;28;20040;-81
2021/01/06 01:39:45;;;;;;;11.55;7.88;;;3.60;92.40;;;;;;2084100;28;20044;-80
2021/01/06 01:40:46;;;;;;;13.40;8.20;;;3.60;92.40;;;;;;2090481;28;20037;-81
2021/01/06 01:41:47;;;;;;;13.43;8.57;;;3.60;92.40;;;;;;2089772;28;20021;-81
2021/01/06 01:43:04;;;;;;;12.65;8.23;;;3.60;92.40;;;;;;2086801;28;20094;-81
2021/01/06 01:44:04;;;;;;;13.60;8.48;;;3.50;92.40;;;;;;2082651;28;20033;-81
2021/01/06 01:45:06;;;;;;;14.32;8.88;;;3.50;92.40;;;;;;2087742;28;20040;-81
2021/01/06 01:46:22;;;;;;;13.45;8.35;;;3.50;92.40;;;;;;2089514;28;20124;-81
2021/01/06 01:47:34;;;;;;;15.23;8.57;;;3.50;92.40;;;;;;2090619;28;20021;-81
2021/01/06 01:48:38;;;;;;;11.55;7.90;;;3.50;92.40;;;;;;2083225;28;20542;-80
2021/01/06 01:49:44;;;;;;;11.82;7.80;;;3.60;92.40;;;;;;2089610;28;20037;-81
2021/01/06 01:50:46;;;;;;;14.90;8.40;;;3.50;92.40;;;;;;2090112;28;20021;-81
2021/01/06 01:51:56;;;;;;;11.75;7.95;;;3.50;92.50;;;;;;2089734;28;20071;-81
2021/01/06 01:53:04;;;;;;;13.68;8.32;;;3.50;92.40;;;;;;2088272;28;20024;-81
2021/01/06 01:54:14;;;;;;;13.10;7.90;;;3.50;92.40;;;;;;2101818;28;20021;-82
2021/01/06 01:55:17;;;;;;;12.82;8.27;;;3.50;92.40;;;;;;2097123;28;20385;-81
2021/01/06 01:56:21;;;;;;;12.77;8.50;;;3.50;92.30;;;;;;2088107;28;20426;-81
2021/01/06 01:57:28;;;;;;;10.80;7.53;;;3.50;92.40;;;;;;2082950;28;20032;-81
2021/01/06 01:58:31;;;;;;;11.93;7.93;;;3.50;92.30;;;;;;2088650;28;20027;-81
2021/01/06 02:00:07;;;;;;;11.98;8.00;;;3.50;92.40;;;;;;2083221;28;20044;-81
2021/01/06 02:01:09;;;;;;;12.70;7.95;;;3.50;92.30;;;;;;2079970;28;20049;-81
2021/01/06 02:02:35;;;;;;;12.55;7.65;;;3.50;92.30;;;;;;2099482;28;20464;-81
2021/01/06 02:03:51;;;;;;;11.38;7.32;;;3.50;92.30;;;;;;2091371;28;20044;-80
2021/01/06 02:05:00;;;;;;;10.43;6.97;;;3.50;92.30;;;;;;2081545;28;20037;-80
2021/01/06 02:06:06;;;;;;;10.73;7.40;;;3.50;92.30;;;;;;2074884;28;20018;-81
2021/01/06 02:07:15;;;;;;;10.23;7.07;;;3.50;92.30;;;;;;2086924;28;20024;-81
2021/01/06 02:08:32;;;;;;;10.88;7.22;;;3.50;92.30;;;;;;2097662;28;20059;-81
2021/01/06 02:09:57;;;;;;;9.38;7.15;;;3.50;92.30;;;;;;2088973;28;20028;-81
2021/01/06 02:11:07;;;;;;;11.13;7.57;;;3.50;92.30;;;;;;2053532;28;20553;-80
2021/01/06 02:12:18;;;;;;;13.32;8.10;;;3.50;92.30;;;;;;2086154;28;20128;-81
2021/01/06 02:13:49;;;;;;;11.20;7.40;;;3.50;92.20;;;;;;2092728;28;20013;-81
2021/01/06 02:15:06;;;;;;;11.25;7.88;;;3.50;92.20;;;;;;2089678;28;20033;-81
2021/01/06 02:16:20;;;;;;;10.88;7.90;;;3.50;92.20;;;;;;2082356;28;20017;-81
2021/01/06 02:17:20;;;;;;;11.70;7.80;;;3.50;92.20;;;;;;2083247;28;20477;-81
2021/01/06 02:18:21;;;;;;;10.77;7.82;;;3.40;92.20;;;;;;2082749;28;20059;-81
2021/01/06 02:19:33;;;;;;;11.63;7.90;;;3.50;92.20;;;;;;2084304;28;20025;-81
2021/01/06 02:20:33;;;;;;;10.73;7.60;;;3.50;92.20;;;;;;2080173;28;20032;-80
2021/01/06 02:21:34;;;;;;;10.50;7.38;;;3.50;92.20;;;;;;2080917;28;20025;-81
2021/01/06 02:22:35;;;;;;;11.52;7.78;;;3.40;92.20;;;;;;2081993;28;20044;-81
2021/01/06 02:23:38;;;;;;;11.73;7.63;;;3.50;92.20;;;;;;2092433;28;20116;-81
2021/01/06 02:24:39;;;;;;;14.82;9.55;;;3.40;92.20;;;;;;2088904;28;20033;-81
2021/01/06 02:25:40;;;;;;;12.60;8.68;;;3.50;92.20;;;;;;2088376;28;20070;-81
2021/01/06 02:26:41;;;;;;;13.00;8.93;;;3.40;92.20;;;;;;2084122;28;20419;-81
2021/01/06 02:27:43;;;;;;;11.95;8.13;;;3.50;92.20;;;;;;2083311;28;20069;-81
2021/01/06 02:28:45;;;;;;;11.45;8.05;;;3.40;92.20;;;;;;2097668;28;20048;-81
2021/01/06 02:29:46;;;;;;;12.48;8.32;;;3.40;92.20;;;;;;2095084;28;20049;-81
2021/01/06 02:30:47;;;;;;;12.32;8.25;;;3.50;92.50;;;;;;2089625;28;20521;-81
2021/01/06 02:31:48;;;;;;;11.70;7.78;;;3.40;92.20;;;;;;2080816;28;20120;-81
2021/01/06 02:32:49;;;;;;;10.80;7.60;;;3.40;92.20;;;;;;2080604;28;20033;-81
2021/01/06 02:33:52;;;;;;;11.48;7.85;;;3.50;92.20;;;;;;2092563;28;20531;-80
2021/01/06 02:34:52;;;;;;;12.38;8.95;;;3.50;92.20;;;;;;2090576;28;20021;-81
2021/01/06 02:35:54;;;;;;;11.18;8.25;;;3.50;92.20;;;;;;2070103;28;20472;-81
2021/01/06 02:36:54;;;;;;;11.75;8.60;;;3.40;92.10;;;;;;2075307;28;20137;-80
2021/01/06 02:37:56;;;;;;;11.50;7.78;;;3.40;92.10;;;;;;2096145;28;20024;-80
2021/01/06 02:38:59;;;;;;;11.93;8.38;;;3.50;92.50;;;;;;2089134;28;20044;-80
2021/01/06 02:40:00;;;;;;;12.43;8.60;;;3.40;92.20;;;;;;2068381;28;20029;-81
2021/01/06 02:41:01;;;;;;;13.63;8.38;;;3.40;92.20;;;;;;2079123;28;20018;-81
2021/01/06 02:42:02;;;;;;;12.27;9.02;;;3.40;92.20;;;;;;2086826;28;20418;-81
2021/01/06 02:43:04;;;;;;;13.38;9.25;;;3.40;92.20;;;;;;2073350;28;20026;-80
2021/01/06 02:44:06;;;;;;;12.57;8.30;;;3.40;92.20;;;;;;2079136;28;20483;-80
2021/01/06 02:45:12;;;;;;;12.70;8.60;;;3.40;92.20;;;;;;2084851;28;20079;-81
2021/01/06 02:46:13;;;;;;;12.75;8.65;;;3.40;92.20;;;;;;2096878;28;20028;-81
2021/01/06 02:47:15;;;;;;;12.57;8.40;;;3.40;92.20;;;;;;2090326;28;20111;-81
2021/01/06 02:48:17;;;;;;;11.88;8.35;;;3.40;92.20;;;;;;2089825;28;20029;-80
2021/01/06 02:49:19;;;;;;;11.50;7.53;;;3.40;92.20;;;;;;2091677;28;20021;-80
2021/01/06 02:50:26;;;;;;;12.10;7.82;;;3.40;92.20;;;;;;2092889;28;20089;-81
2021/01/06 02:51:36;;;;;;;15.05;9.00;;;3.40;92.20;;;;;;2083786;28;20522;-80
2021/01/06 02:52:46;;;;;;;11.88;8.15;;;3.40;92.20;;;;;;2086927;28;20078;-80
2021/01/06 02:53:54;;;;;;;11.77;8.52;;;3.40;92.10;;;;;;2084152;28;20491;-81
2021/01/06 02:54:55;;;;;;;12.63;8.60;;;3.40;92.10;;;;;;2088530;28;20021;-80
2021/01/06 02:55:56;;;;;;;13.55;8.40;;;3.40;92.10;;;;;;2087903;28;20169;-80
2021/01/06 02:56:59;;;;;;;10.95;7.90;;;3.40;92.10;;;;;;2093931;28;20530;-81
2021/01/06 02:58:07;;;;;;;12.60;8.80;;;3.40;92.10;;;;;;2090910;28;20033;-81
2021/01/06 02:59:12;;;;;;;12.45;7.97;;;3.40;92.10;;;;;;2088502;28;20560;-81
2021/01/06 03:00:22;;;;;;;12.57;8.23;;;3.40;92.10;;;;;;2097949;28;20533;-82
2021/01/06 03:01:27;;;;;;;12.85;8.77;;;3.40;92.10;;;;;;2096850;28;20036;-81
2021/01/06 03:02:29;;;;;;;12.10;8.05;;;3.30;92.10;;;;;;2088116;28;20029;-81
2021/01/06 03:03:33;;;;;;;13.68;8.32;;;3.40;92.40;;;;;;2080172;28;20037;-80
2021/01/06 03:04:42;;;;;;;13.35;8.80;;;3.40;92.10;;;;;;2082202;28;20057;-80
2021/01/06 03:05:52;;;;;;;13.98;8.90;;;3.40;92.10;;;;;;2079130;28;20068;-81
2021/01/06 03:06:54;;;;;;;12.95;8.90;;;3.30;92.10;;;;;;2089097;28;20609;-81
2021/01/06 03:07:55;;;;;;;14.55;8.90;;;3.30;92.10;;;;;;2084998;28;20021;-82
2021/01/06 03:08:55;;;;;;;13.73;9.05;;;3.30;92.10;;;;;;2095524;28;20035;-82
2021/01/06 03:09:56;;;;;;;13.02;8.75;;;3.40;92.10;;;;;;2075694;28;20042;-82
2021/01/06 03:10:57;;;;;;;13.93;9.02;;;3.30;92.10;;;;;;2081224;28;20025;-82
2021/01/06 03:12:00;;;;;;;13.02;9.00;;;3.40;92.10;;;;;;2082007;28;20414;-82
2021/01/06 03:13:01;;;;;;;12.15;8.18;;;3.30;92.10;;;;;;2080269;28;20017;-82
2021/01/06 03:14:02;;;;;;;14.20;9.00;;;3.30;92.10;;;;;;2079566;28;20117;-82
2021/01/06 03:15:04;;;;;;;12.48;8.57;;;3.30;92.10;;;;;;2089158;28;20037;-82
2021/01/06 03:16:06;;;;;;;11.25;8.23;;;3.30;92.10;;;;;;2082012;28;20029;-83
2021/01/06 03:17:08;;;;;;;11.30;7.72;;;3.30;92.10;;;;;;2088751;28;20033;-82
2021/01/06 03:18:09;;;;;;;12.93;8.25;;;3.30;92.10;;;;;;2091440;28;20128;-82
2021/01/06 03:19:16;;;;;;;11.85;7.90;;;3.30;92.10;;;;;;2103672;28;20044;-82
2021/01/06 03:20:35;;;;;;;12.52;8.07;;;3.40;92.10;;;;;;2089081;28;20407;-82
2021/01/06 03:21:39;;;;;;;11.18;7.57;;;3.40;92.10;;;;;;2082234;28;20499;-82
2021/01/06 03:22:43;;;;;;;11.10;7.47;;;3.40;92.10;;;;;;2084137;28;20017;-82
2021/01/06 03:23:51;;;;;;;11.48;7.82;;;3.30;92.10;;;;;;2082243;28;20030;-83
2021/01/06 03:24:58;;;;;;;11.60;7.80;;;3.40;92.10;;;;;;2082147;28;20036;-82
2021/01/06 03:26:03;;;;;;;11.70;7.55;;;3.40;92.10;;;;;;2084261;28;20054;-81
2021/01/06 03:27:04;;;;;;;10.70;7.00;;;3.40;92.00;;;;;;2098678;28;20021;-80
2021/01/06 03:28:05;;;;;;;10.90;7.53;;;3.40;92.00;;;;;;2088875;28;20044;-80
2021/01/06 03:29:06;;;;;;;11.63;8.10;;;3.30;92.00;;;;;;2081171;28;20391;-79
2021/01/06 03:30:10;;;;;;;11.57;8.02;;;3.40;92.00;;;;;;2084200;28;20030;-80
2021/01/06 03:31:21;;;;;;;12.35;8.75;;;3.30;92.00;;;;;;2082128;28;20028;-81
2021/01/06 03:32:49;;;;;;;11.38;8.10;;;3.30;92.00;;;;;;2088671;28;20029;-80
2021/01/06 03:34:14;;;;;;;10.98;8.13;;;3.40;92.00;;;;;;2084265;28;20028;-81
2021/01/06 03:35:36;;;;;;;12.63;8.15;;;3.30;92.00;;;;;;2088038;28;20028;-81
2021/01/06 03:36:43;;;;;;;11.55;7.50;;;3.30;92.00;;;;;;2098270;28;20043;-82
2021/01/06 03:38:10;;;;;;;10.98;7.40;;;3.30;92.00;;;;;;2095991;28;20032;-82
2021/01/06 03:39:29;;;;;;;12.20;7.88;;;3.30;92.00;;;;;;2091359;28;20086;-82
2021/01/06 03:40:37;;;;;;;11.75;7.75;;;3.30;92.20;;;;;;2099179;28;20036;-82
2021/01/06 03:41:38;;;;;;;11.88;7.88;;;3.30;92.00;;;;;;2101059;28;20035;-82
2021/01/06 03:42:42;;;;;;;13.27;8.23;;;3.30;92.00;;;;;;2086954;28;20744;-82
2021/01/06 03:43:51;;;;;;;12.60;8.18;;;3.30;92.00;;;;;;2088747;28;20036;-82
2021/01/06 03:44:53;;;;;;;11.85;7.75;;;3.30;92.00;;;;;;2078799;28;20418;-82
2021/01/06 03:46:25;;;;;;;11.00;7.63;;;3.30;92.00;;;;;;2081107;28;20034;-82
2021/01/06 03:47:31;;;;;;;11.98;7.57;;;3.30;92.00;;;;;;2098694;28;20031;-82
2021/01/06 03:48:46;;;;;;;11.48;8.00;;;3.30;92.00;;;;;;2089987;28;20112;-82
2021/01/06 03:50:13;;;;;;;10.20;7.28;;;3.30;92.00;;;;;;2079030;28;20029;-82
2021/01/06 03:51:33;;;;;;;11.63;7.68;;;3.30;92.00;;;;;;2080953;28;20036;-82
2021/01/06 03:52:48;;;;;;;11.95;8.75;;;3.30;92.00;;;;;;2086964;28;20126;-82
2021/01/06 03:53:50;;;;;;;12.27;7.60;;;3.30;91.90;;;;;;2081737;28;20025;-82
2021/01/06 03:55:16;;;;;;;12.60;7.88;;;3.30;91.90;;;;;;2093312;28;20123;-82
2021/01/06 03:56:28;;;;;;;12.30;7.90;;;3.30;91.90;;;;;;2090865;28;20402;-82
2021/01/06 03:57:31;;;;;;;13.35;8.63;;;3.30;91.90;;;;;;2085377;28;20048;-82
2021/01/06 03:58:49;;;;;;;10.98;7.35;;;3.30;91.90;;;;;;2088408;28;20052;-81
2021/01/06 03:59:51;;;;;;;11.95;8.02;;;3.30;91.90;;;;;;2083463;28;20687;-82
2021/01/06 04:01:49;;;;;;;10.57;7.30;;;3.30;91.90;;;;;;2079268;28;20491;-82
2021/01/06 04:02:56;;;;;;;11.18;7.47;;;3.30;91.90;;;;;;2087207;28;20032;-82
2021/01/06 04:04:11;;;;;;;11.50;7.70;;;3.20;91.90;;;;;;2080955;28;20033;-82
2021/01/06 04:05:19;;;;;;;12.20;7.80;;;3.20;91.90;;;;;;2083190;28;20034;-82
2021/01/06 04:06:23;;;;;;;11.68;7.88;;;3.20;91.90;;;;;;2082862;28;20065;-82
2021/01/06 04:07:38;;;;;;;11.88;7.82;;;3.20;91.90;;;;;;2081778;28;20021;-82
2021/01/06 04:08:59;;;;;;;11.93;8.23;;;3.30;91.90;;;;;;2091340;28;20099;-82
2021/01/06 04:10:10;;;;;;;11.77;7.50;;;3.20;92.10;;;;;;2081284;28;20470;-82
2021/01/06 04:11:16;;;;;;;13.13;8.90;;;3.20;91.90;;;;;;2082698;28;20026;-82
2021/01/06 04:12:19;;;;;;;16.27;8.98;;;3.20;92.10;;;;;;2088276;28;20083;-82
2021/01/06 04:13:20;;;;;;;14.68;9.35;;;3.20;91.80;;;;;;2073928;28;20117;-82
2021/01/06 04:14:20;;;;;;;12.68;8.43;;;3.20;91.80;;;;;;2071960;28;20022;-82
2021/01/06 04:15:22;;;;;;;11.95;8.50;;;3.20;91.80;;;;;;2088993;28;20035;-82
2021/01/06 04:16:23;;;;;;;13.30;8.20;;;3.20;91.80;;;;;;2098196;28;20039;-80
2021/01/06 04:17:37;;;;;;;13.30;9.20;;;3.20;91.80;;;;;;2088465;28;20032;-80
2021/01/06 04:18:37;;;;;;;12.82;8.70;;;3.20;91.90;;;;;;2086345;28;20054;-80
2021/01/06 04:19:40;;;;;;;13.80;8.27;;;3.20;91.80;;;;;;2089606;28;20067;-80
2021/01/06 04:20:42;;;;;;;12.43;8.25;;;3.20;91.80;;;;;;2096737;28;20048;-80
2021/01/06 04:21:43;;;;;;;12.50;8.55;;;3.20;91.90;;;;;;2083765;28;20116;-80
2021/01/06 04:22:53;;;;;;;14.32;8.93;;;3.20;91.90;;;;;;2086446;28;20032;-80
2021/01/06 04:23:54;;;;;;;11.77;8.05;;;3.20;91.80;;;;;;2081310;28;20503;-81
2021/01/06 04:24:54;;;;;;;12.27;8.10;;;3.30;91.90;;;;;;2090635;28;20118;-81
2021/01/06 04:25:56;;;;;;;10.57;7.80;;;3.20;91.80;;;;;;2092866;28;20055;-81
2021/01/06 04:26:56;;;;;;;11.75;7.70;;;3.30;91.90;;;;;;2076815;28;20025;-80
2021/01/06 04:28:18;;;;;;;11.27;8.10;;;3.30;91.90;;;;;;2090924;28;20037;-81
2021/01/06 04:29:19;;;;;;;10.73;7.80;;;3.20;91.80;;;;;;2097994;28;20022;-80
2021/01/06 04:30:42;;;;;;;12.00;8.25;;;3.30;91.90;;;;;;2092286;28;20089;-80
2021/01/06 04:31:42;;;;;;;12.48;8.82;;;3.30;91.90;;;;;;2087971;28;20037;-79
2021/01/06 04:32:43;;;;;;;13.55;8.77;;;3.30;91.80;;;;;;2088457;28;20105;-80
2021/01/06 04:33:48;;;;;;;12.30;8.35;;;3.20;91.80;;;;;;2091682;28;20010;-80
2021/01/06 04:34:48;;;;;;;12.93;8.77;;;3.20;91.80;;;;;;2091891;28;20029;-80
2021/01/06 04:35:49;;;;;;;15.20;9.73;;;3.20;91.80;;;;;;2097504;28;20024;-80
2021/01/06 04:36:50;;;;;;;13.82;9.27;;;3.20;91.80;;;;;;2099011;28;20106;-80
2021/01/06 04:37:51;;;;;;;13.07;9.00;;;3.20;91.80;;;;;;2092734;28;20024;-80
2021/01/06 04:38:54;;;;;;;14.00;9.57;;;3.20;91.80;;;;;;2091161;28;20010;-79
2021/01/06 04:39:55;;;;;;;15.10;9.40;;;3.20;91.80;;;;;;2093028;28;20163;-81
2021/01/06 04:41:33;;;;;;;13.80;8.95;;;3.20;91.80;;;;;;2102510;28;20036;-80
2021/01/06 04:42:36;;;;;;;11.65;8.23;;;3.20;91.80;;;;;;2071280;28;20086;-80
2021/01/06 04:44:21;;;;;;;13.48;8.70;;;3.20;91.80;;;;;;2083733;28;20046;-80
2021/01/06 04:45:25;;;;;;;11.40;8.07;;;3.20;91.80;;;;;;2082403;28;20049;-80
2021/01/06 04:46:58;;;;;;;12.25;7.97;;;3.20;91.80;;;;;;2085825;28;20021;-80
2021/01/06 04:48:19;;;;;;;11.32;7.88;;;3.20;92.10;;;;;;2081978;28;20059;-80
2021/01/06 04:49:35;;;;;;;12.00;7.45;;;3.20;91.80;;;;;;2081090;28;20029;-80
2021/01/06 04:51:01;;;;;;;11.45;7.25;;;3.20;91.80;;;;;;2083092;28;20051;-81
2021/01/06 04:52:16;;;;;;;11.95;8.15;;;3.20;91.80;;;;;;2087406;28;20474;-80
2021/01/06 04:53:29;;;;;;;11.90;7.38;;;3.20;91.80;;;;;;2086831;28;20489;-80
2021/01/06 04:54:47;;;;;;;11.50;7.97;;;3.10;91.70;;;;;;2083375;28;20108;-80
2021/01/06 04:56:13;;;;;;;11.98;7.85;;;3.10;91.80;;;;;;2089321;28;20029;-81
2021/01/06 04:58:08;;;;;;;10.27;7.07;;;3.10;91.80;;;;;;2086978;28;20102;-81
2021/01/06 04:59:16;;;;;;;10.80;7.13;;;3.10;91.80;;;;;;2090893;28;20099;-80
2021/01/06 05:00:21;;;;;;;11.98;7.90;;;3.00;91.80;;;;;;2097389;28;20009;-81
2021/01/06 05:01:46;;;;;;;9.75;6.78;;;3.00;91.80;;;;;;2100885;28;20017;-81
2021/01/06 05:03:14;;;;;;;11.50;7.32;;;3.00;91.80;;;;;;2101109;28;20025;-80
2021/01/06 05:04:35;;;;;;;11.48;7.40;;;3.00;91.80;;;;;;2097643;28;20041;-80
2021/01/06 05:05:47;;;;;;;;;;;3.00;91.80;;;;;;2078824;28;20068;-80
2021/01/06 05:07:17;;;;;;;11.18;7.25;;;3.00;91.80;;;;;;2076298;28;19913;-80
2021/01/06 05:08:42;;;;;;;11.65;8.07;;;3.00;91.80;;;;;;2087718;28;20112;-81
2021/01/06 05:09:49;;;;;;;13.07;8.00;;;3.00;91.80;;;;;;2084776;28;20040;-81
2021/01/06 05:10:55;;;;;;;10.98;7.20;;;2.90;91.80;;;;;;2082508;28;20032;-81
2021/01/06 05:12:33;;;;;;;12.57;7.43;;;2.90;91.80;;;;;;2091613;28;20025;-81
2021/01/06 05:13:39;;;;;;;12.60;8.45;;;3.00;91.90;;;;;;2092194;28;20028;-81
2021/01/06 05:14:56;;;;;;;13.55;7.95;;;2.90;91.80;;;;;;2080689;28;20026;-81
2021/01/06 05:16:02;;;;;;;12.25;8.35;;;3.00;91.90;;;;;;2078277;28;20032;-81
2021/01/06 05:17:13;;;;;;;13.50;8.30;;;3.00;91.90;;;;;;2080288;28;20076;-81
2021/01/06 05:18:13;;;;;;;;;;;2.90;91.90;;;;;;2081684;28;20028;-82
2021/01/06 05:19:26;;;;;;;12.02;7.68;;;2.90;91.90;;;;;;2089729;28;19971;-82
2021/01/06 05:20:27;;;;;;;11.75;7.28;;;3.00;91.90;;;;;;2087980;28;20040;-82
2021/01/06 05:21:29;;;;;;;10.30;7.28;;;2.90;91.80;;;;;;2081826;28;20096;-82
2021/01/06 05:22:29;;;;;;;12.10;7.50;;;2.90;91.90;;;;;;2087839;28;20037;-82
2021/01/06 05:23:30;;;;;;;12.38;7.65;;;3.00;91.90;;;;;;2088694;28;20052;-81
2021/01/06 05:24:46;;;;;;;12.35;8.38;;;3.00;91.90;;;;;;2081008;28;20076;-81
2021/01/06 05:25:47;;;;;;;12.32;8.38;;;2.90;91.90;;;;;;2081672;28;20033;-82
2021/01/06 05:27:13;;;;;;;13.70;9.02;;;2.90;91.90;;;;;;2098008;28;20488;-80
2021/01/06 05:28:17;;;;;;;12.25;8.45;;;2.90;91.90;;;;;;2098503;28;20365;-81
2021/01/06 05:29:25;;;;;;;12.77;8.13;;;2.90;91.90;;;;;;2088641;28;20472;-82
2021/01/06 05:30:32;;;;;;;12.63;8.38;;;3.00;92.00;;;;;;2081689;28;20025;-82
2021/01/06 05:31:32;;;;;;;12.77;8.18;;;3.00;91.90;;;;;;2089303;28;20025;-82
2021/01/06 05:32:37;;;;;;;12.20;7.55;;;3.00;91.90;;;;;;2080785;28;20111;-82
2021/01/06 05:33:49;;;;;;;11.23;7.95;;;3.00;91.90;;;;;;2082042;28;20105;-81
2021/01/06 05:34:54;;;;;;;11.55;8.00;;;3.00;91.90;;;;;;2095404;28;20431;-81
2021/01/06 05:35:55;;;;;;;10.90;7.63;;;3.00;91.90;;;;;;2088174;28;20068;-82
2021/01/06 05:36:56;;;;;;;11.15;7.43;;;3.00;91.90;;;;;;2082192;28;20037;-81
2021/01/06 05:37:59;;;;;;;11.60;7.57;;;3.00;91.90;;;;;;2090888;28;20048;-82
2021/01/06 05:39:24;;;;;;;10.75;7.43;;;3.00;91.90;;;;;;2081914;28;20473;-82
2021/01/06 05:40:26;;;;;;;10.63;7.03;;;3.00;92.00;;;;;;2088414;28;20032;-82
2021/01/06 05:41:26;;;;;;;10.48;6.80;;;3.00;92.00;;;;;;2094020;28;20017;-82
2021/01/06 05:42:32;;;;;;;11.18;7.30;;;2.90;92.00;;;;;;2102728;28;20035;-82
2021/01/06 05:43:40;;;;;;;11.32;7.55;;;3.00;92.00;;;;;;2092896;28;20067;-81
2021/01/06 05:44:41;;;;;;;11.30;7.78;;;2.90;92.00;;;;;;2091055;28;20462;-82
2021/01/06 05:45:55;;;;;;;11.70;7.63;;;3.00;92.00;;;;;;2088889;28;20043;-82